Time;durP1;ratioP1;P1;durP2;ratioP2;P2;SDS_P1;SDS_P2;PMS_P1;PMS_P2;Temp;Humidity;BMP_temperature;BMP_pressure;BME280_temperature;BME280_humidity;BME280_pressure;Samples;Min_cycle;Max_cycle;Signal;HPM_P1;HPM_P2
2021/03/16 00:02:24;;;;;;;1.02;0.95;;;8.20;99.90;;;;;;4995193;28;20162;-77
2021/03/16 00:04:49;;;;;;;0.20;0.20;;;8.10;99.90;;;;;;4993816;28;20208;-77
2021/03/16 00:07:17;;;;;;;9.85;2.35;;;8.10;99.90;;;;;;4995052;28;20188;-77
2021/03/16 00:09:43;;;;;;;0.30;0.30;;;8.10;99.90;;;;;;4995037;28;20162;-76
2021/03/16 00:12:09;;;;;;;6.00;1.05;;;8.10;99.90;;;;;;4993765;28;20169;-78
2021/03/16 00:14:34;;;;;;;1.20;1.15;;;8.10;99.90;;;;;;4995057;28;20256;-78
2021/03/16 00:17:00;;;;;;;0.45;0.45;;;8.10;99.90;;;;;;4994835;28;20232;-78
2021/03/16 00:19:26;;;;;;;2.67;1.35;;;8.00;99.90;;;;;;4993860;28;20235;-77
2021/03/16 00:21:51;;;;;;;6.13;1.58;;;7.90;99.90;;;;;;4995019;28;20257;-78
2021/03/16 00:24:17;;;;;;;0.10;0.10;;;7.90;99.90;;;;;;4995084;28;20213;-79
2021/03/16 00:26:42;;;;;;;1.10;1.10;;;7.90;99.90;;;;;;4995040;28;20185;-78
2021/03/16 00:29:08;;;;;;;0.20;0.20;;;8.00;99.90;;;;;;4993752;28;20169;-76
2021/03/16 00:31:34;;;;;;;3.97;1.08;;;7.90;99.90;;;;;;4994754;28;20158;-77
2021/03/16 00:33:59;;;;;;;0.10;0.10;;;8.10;99.90;;;;;;4994613;28;20173;-78
2021/03/16 00:36:25;;;;;;;0.10;0.10;;;8.00;99.90;;;;;;4994698;28;20181;-77
2021/03/16 00:38:50;;;;;;;0.30;0.30;;;8.00;99.90;;;;;;4994351;28;20196;-78
2021/03/16 00:41:16;;;;;;;0.30;0.30;;;8.00;99.90;;;;;;4994543;28;20173;-77
2021/03/16 00:43:42;;;;;;;0.50;0.50;;;8.20;99.90;;;;;;4994343;28;20611;-77
2021/03/16 00:46:07;;;;;;;2.25;1.17;;;8.10;99.90;;;;;;4993396;28;20568;-77
2021/03/16 00:48:33;;;;;;;0.40;0.40;;;8.10;99.90;;;;;;4994315;28;20706;-77
2021/03/16 00:50:58;;;;;;;0.47;0.47;;;8.20;99.90;;;;;;4994225;28;20203;-77
2021/03/16 00:53:24;;;;;;;0.55;0.55;;;8.20;99.90;;;;;;4993470;28;20169;-77
2021/03/16 00:55:51;;;;;;;5.53;1.70;;;8.20;99.90;;;;;;4994733;28;20236;-77
2021/03/16 00:58:28;;;;;;;25.77;2.20;;;8.20;99.90;;;;;;4994659;28;20195;-77
2021/03/16 01:00:54;;;;;;;1.13;1.13;;;8.10;99.90;;;;;;4994766;28;20180;-77
2021/03/16 01:03:20;;;;;;;1.98;1.17;;;8.10;99.90;;;;;;4994466;28;20216;-77
2021/03/16 01:05:47;;;;;;;0.13;0.13;;;8.10;99.90;;;;;;4993383;28;20550;-77
2021/03/16 01:08:14;;;;;;;0.13;0.13;;;8.10;99.90;;;;;;4993131;28;20185;-77
2021/03/16 01:10:40;;;;;;;0.30;0.30;;;8.00;99.90;;;;;;4994578;28;20180;-77
2021/03/16 01:13:05;;;;;;;0.38;0.38;;;8.00;99.90;;;;;;4994620;28;20157;-78
2021/03/16 01:15:31;;;;;;;1.17;0.70;;;8.00;99.90;;;;;;4994389;28;20180;-78
2021/03/16 01:17:57;;;;;;;1.02;0.75;;;8.00;99.90;;;;;;4994338;28;20261;-78
2021/03/16 01:20:24;;;;;;;0.73;0.70;;;8.20;99.90;;;;;;4994321;28;20181;-77
2021/03/16 01:22:50;;;;;;;3.60;1.00;;;8.10;99.90;;;;;;4994376;28;20232;-78
2021/03/16 01:25:15;;;;;;;0.55;0.55;;;8.30;99.90;;;;;;4992844;28;20303;-78
2021/03/16 01:27:41;;;;;;;22.45;1.65;;;8.10;99.90;;;;;;4994142;28;20552;-77
2021/03/16 01:30:08;;;;;;;2.13;1.35;;;8.20;99.90;;;;;;4994322;28;20177;-77
2021/03/16 01:32:34;;;;;;;0.52;0.52;;;8.20;99.90;;;;;;4994135;28;20574;-78
2021/03/16 01:35:01;;;;;;;3.63;1.20;;;8.20;99.90;;;;;;4994192;28;20165;-78
2021/03/16 01:37:28;;;;;;;0.10;0.10;;;8.10;99.90;;;;;;4993804;28;20200;-77
2021/03/16 01:39:53;;;;;;;0.65;0.65;;;8.30;99.90;;;;;;4993890;28;20160;-78
2021/03/16 01:42:19;;;;;;;9.10;1.40;;;8.20;99.90;;;;;;4993118;28;20161;-78
2021/03/16 01:44:45;;;;;;;2.40;0.57;;;8.20;99.90;;;;;;4992926;28;20331;-78
2021/03/16 01:47:12;;;;;;;1.52;1.48;;;8.20;99.90;;;;;;4994338;28;20225;-78
2021/03/16 01:49:38;;;;;;;0.40;0.40;;;8.10;99.90;;;;;;4994511;28;20217;-78
2021/03/16 01:52:05;;;;;;;1.65;1.00;;;8.10;99.90;;;;;;4996886;28;20175;-78
2021/03/16 01:54:31;;;;;;;1.65;1.55;;;8.00;99.90;;;;;;4998772;28;20169;-78
2021/03/16 01:57:00;;;;;;;0.30;0.30;;;7.80;99.90;;;;;;4998353;28;20189;-78
2021/03/16 01:59:27;;;;;;;0.35;0.35;;;7.80;99.90;;;;;;4998279;28;20240;-77
2021/03/16 02:01:52;;;;;;;10.32;1.20;;;7.70;99.90;;;;;;4998309;28;20240;-77
2021/03/16 02:04:18;;;;;;;0.20;0.20;;;7.70;99.90;;;;;;4997724;28;20295;-78
2021/03/16 02:06:55;;;;;;;0.30;0.30;;;7.70;99.90;;;;;;4997767;28;20196;-79
2021/03/16 02:09:35;;;;;;;0.10;0.10;;;7.70;99.90;;;;;;4997821;28;20168;-78
2021/03/16 02:12:11;;;;;;;0.95;0.95;;;7.60;99.90;;;;;;4997624;28;20634;-78
2021/03/16 02:14:45;;;;;;;0.40;0.40;;;7.70;99.90;;;;;;4997367;28;20197;-78
2021/03/16 02:17:15;;;;;;;3.30;1.63;;;7.60;99.90;;;;;;4997286;28;20196;-78
2021/03/16 02:19:53;;;;;;;0.20;0.20;;;7.60;99.90;;;;;;4997645;28;20181;-78
2021/03/16 02:22:21;;;;;;;0.40;0.40;;;7.60;99.90;;;;;;4997120;28;20650;-77
2021/03/16 02:25:23;;;;;;;2.13;0.52;;;7.50;99.90;;;;;;4997008;28;20276;-77
2021/03/16 02:28:01;;;;;;;34.33;2.60;;;7.50;99.90;;;;;;4997345;28;20216;-79
2021/03/16 02:30:29;;;;;;;0.30;0.30;;;7.40;99.90;;;;;;4997049;28;20169;-78
2021/03/16 02:32:55;;;;;;;5.75;3.42;;;7.50;99.90;;;;;;4997012;28;20252;-78
2021/03/16 02:35:23;;;;;;;1.83;1.50;;;7.70;99.90;;;;;;4996922;28;20176;-77
2021/03/16 02:37:49;;;;;;;0.60;0.60;;;8.00;99.90;;;;;;4997090;28;20268;-79
2021/03/16 02:40:17;;;;;;;22.00;1.10;;;8.00;99.90;;;;;;4997095;28;20170;-77
2021/03/16 02:42:44;;;;;;;0.20;0.20;;;7.90;99.90;;;;;;4996902;28;20256;-79
2021/03/16 02:45:10;;;;;;;0.20;0.20;;;8.10;99.90;;;;;;4996829;28;20212;-79
2021/03/16 02:47:39;;;;;;;0.40;0.40;;;8.30;99.90;;;;;;4996699;28;20185;-77
2021/03/16 02:50:06;;;;;;;0.75;0.75;;;8.40;99.90;;;;;;4996676;28;20252;-78
2021/03/16 02:52:33;;;;;;;0.13;0.13;;;8.50;99.90;;;;;;4996640;28;20633;-78
2021/03/16 02:54:59;;;;;;;0.90;0.82;;;8.60;99.90;;;;;;4996772;28;20252;-78
2021/03/16 02:57:25;;;;;;;2.88;2.67;;;8.50;99.90;;;;;;4995402;28;20284;-78
2021/03/16 02:59:53;;;;;;;0.40;0.40;;;8.30;99.90;;;;;;4996586;28;20161;-80
2021/03/16 03:02:20;;;;;;;0.30;0.30;;;8.40;99.90;;;;;;4995952;28;20157;-77
2021/03/16 03:04:47;;;;;;;0.82;0.75;;;8.40;99.90;;;;;;4996454;28;20201;-77
2021/03/16 03:07:14;;;;;;;1.42;1.35;;;8.20;99.90;;;;;;4996517;28;20189;-78
2021/03/16 03:09:40;;;;;;;0.63;0.63;;;8.20;99.90;;;;;;4996599;28;20157;-78
2021/03/16 03:12:07;;;;;;;0.20;0.20;;;8.40;99.90;;;;;;4996501;28;20174;-78
2021/03/16 03:14:34;;;;;;;0.30;0.30;;;8.40;99.90;;;;;;4995204;28;20301;-77
2021/03/16 03:17:02;;;;;;;0.95;0.68;;;8.30;99.90;;;;;;4996358;28;20185;-76
2021/03/16 03:19:28;;;;;;;0.40;0.40;;;8.30;99.90;;;;;;4996614;28;20177;-77
2021/03/16 03:22:21;;;;;;;0.35;0.35;;;8.40;99.90;;;;;;4994915;28;20177;-79
2021/03/16 03:24:53;;;;;;;12.98;2.15;;;8.40;99.90;;;;;;4996102;28;20274;-77
2021/03/16 03:27:41;;;;;;;0.20;0.20;;;8.40;99.90;;;;;;4994525;28;20551;-78
2021/03/16 03:30:08;;;;;;;0.47;0.25;;;8.30;99.90;;;;;;4996187;28;20165;-77
2021/03/16 03:32:36;;;;;;;0.93;0.93;;;8.40;99.90;;;;;;4996160;28;20157;-77
2021/03/16 03:35:03;;;;;;;1.08;0.70;;;8.50;99.90;;;;;;4996129;28;20169;-78
2021/03/16 03:37:30;;;;;;;0.20;0.20;;;8.40;99.90;;;;;;4994763;28;20189;-77
2021/03/16 03:39:58;;;;;;;9.05;0.65;;;8.50;99.90;;;;;;4995944;28;20702;-78
2021/03/16 03:42:25;;;;;;;6.55;2.38;;;8.50;99.90;;;;;;4994794;28;20632;-78
2021/03/16 03:44:53;;;;;;;0.82;0.82;;;8.40;99.90;;;;;;4995943;28;20207;-77
2021/03/16 03:47:19;;;;;;;3.83;2.40;;;8.40;99.90;;;;;;4995816;28;20197;-78
2021/03/16 03:49:46;;;;;;;0.20;0.20;;;8.40;99.90;;;;;;4995803;28;20217;-79
2021/03/16 03:52:13;;;;;;;0.10;0.10;;;8.30;99.90;;;;;;4995904;28;20173;-77
2021/03/16 03:54:43;;;;;;;4.20;0.65;;;8.40;99.90;;;;;;4996045;28;20173;-77
2021/03/16 03:57:10;;;;;;;0.43;0.40;;;8.60;99.90;;;;;;4996024;28;20185;-77
2021/03/16 03:59:40;;;;;;;0.93;0.93;;;8.50;99.90;;;;;;4995666;28;20185;-78
2021/03/16 04:02:06;;;;;;;0.60;0.60;;;8.50;99.90;;;;;;4995366;28;20161;-78
2021/03/16 04:04:32;;;;;;;0.57;0.57;;;8.50;99.90;;;;;;4995371;28;20212;-77
2021/03/16 04:06:59;;;;;;;3.95;0.77;;;8.50;99.90;;;;;;4995462;28;20193;-77
2021/03/16 04:09:24;;;;;;;0.15;0.15;;;8.30;99.90;;;;;;4995366;28;20161;-77
2021/03/16 04:11:51;;;;;;;3.58;0.20;;;8.30;99.90;;;;;;4995079;28;20235;-79
2021/03/16 04:14:17;;;;;;;0.30;0.30;;;8.40;99.90;;;;;;4994151;28;20172;-78
2021/03/16 04:16:43;;;;;;;6.70;1.20;;;8.30;99.90;;;;;;4994888;28;20200;-77
2021/03/16 04:19:10;;;;;;;2.92;0.45;;;8.40;99.90;;;;;;4993773;28;20165;-77
2021/03/16 04:21:36;;;;;;;0.20;0.20;;;8.30;99.90;;;;;;4994966;28;20169;-78
2021/03/16 04:24:03;;;;;;;1.38;0.60;;;8.40;99.90;;;;;;4994791;28;20726;-77
2021/03/16 04:26:28;;;;;;;0.20;0.20;;;8.40;99.90;;;;;;4994712;28;20660;-77
2021/03/16 04:28:54;;;;;;;0.43;0.43;;;8.40;99.90;;;;;;4994869;28;20180;-78
2021/03/16 04:31:20;;;;;;;0.25;0.25;;;8.40;99.90;;;;;;4993534;28;20224;-78
2021/03/16 04:33:45;;;;;;;0.20;0.20;;;8.30;99.90;;;;;;4994819;28;20224;-77
2021/03/16 04:36:11;;;;;;;0.30;0.30;;;8.20;99.90;;;;;;4995109;28;20256;-78
2021/03/16 04:38:36;;;;;;;0.55;0.50;;;8.20;99.90;;;;;;4995263;28;20174;-76
2021/03/16 04:41:02;;;;;;;0.47;0.47;;;8.20;99.90;;;;;;4994885;28;20691;-76
2021/03/16 04:43:28;;;;;;;0.30;0.30;;;8.20;99.90;;;;;;4993385;28;20244;-77
2021/03/16 04:45:54;;;;;;;1.98;1.13;;;8.30;99.90;;;;;;4994471;28;20165;-78
2021/03/16 04:48:19;;;;;;;0.20;0.20;;;8.30;99.90;;;;;;4994115;28;20216;-78
2021/03/16 04:50:45;;;;;;;0.47;0.47;;;8.20;99.90;;;;;;4994336;28;20660;-77
2021/03/16 04:53:10;;;;;;;0.20;0.20;;;8.10;99.90;;;;;;4994376;28;20201;-77
2021/03/16 04:55:36;;;;;;;18.25;0.65;;;8.10;99.90;;;;;;4994383;28;20697;-77
2021/03/16 04:58:02;;;;;;;0.20;0.20;;;8.00;99.90;;;;;;4993961;28;20193;-78
2021/03/16 05:00:28;;;;;;;1.85;1.17;;;8.00;99.90;;;;;;4994114;28;20177;-78
2021/03/16 05:02:53;;;;;;;1.65;1.05;;;8.10;99.90;;;;;;4994324;28;20158;-77
2021/03/16 05:05:19;;;;;;;0.55;0.43;;;8.10;99.90;;;;;;4994174;28;20689;-78
2021/03/16 05:07:45;;;;;;;0.43;0.43;;;7.90;99.90;;;;;;4994304;28;20191;-77
2021/03/16 05:10:11;;;;;;;0.20;0.20;;;7.90;99.90;;;;;;4993201;28;20684;-78
2021/03/16 05:12:37;;;;;;;3.00;1.60;;;7.90;99.90;;;;;;4994374;28;20613;-78
2021/03/16 05:15:05;;;;;;;3.83;1.20;;;7.60;99.90;;;;;;4994039;28;20236;-78
2021/03/16 05:17:30;;;;;;;0.20;0.20;;;7.70;99.90;;;;;;4993960;28;20216;-77
2021/03/16 05:19:56;;;;;;;0.20;0.20;;;7.70;99.90;;;;;;4992930;28;20219;-77
2021/03/16 05:22:21;;;;;;;0.30;0.30;;;7.70;99.90;;;;;;4994036;28;20168;-78
2021/03/16 05:24:47;;;;;;;2.40;0.47;;;7.80;99.90;;;;;;4993842;28;20213;-79
2021/03/16 05:27:12;;;;;;;0.30;0.30;;;7.70;99.90;;;;;;4994088;28;20672;-77
2021/03/16 05:29:38;;;;;;;0.43;0.43;;;7.70;99.90;;;;;;4994255;28;20177;-77
2021/03/16 05:32:04;;;;;;;0.60;0.60;;;7.70;99.90;;;;;;4994095;28;20170;-78
2021/03/16 05:34:30;;;;;;;0.82;0.50;;;7.80;99.90;;;;;;4993997;28;20177;-78
2021/03/16 05:36:55;;;;;;;0.20;0.20;;;7.70;99.90;;;;;;4994153;28;20260;-77
2021/03/16 05:39:21;;;;;;;0.32;0.32;;;7.80;99.90;;;;;;4994339;28;20169;-79
2021/03/16 05:41:47;;;;;;;0.13;0.13;;;7.70;99.90;;;;;;4993648;28;20741;-77
2021/03/16 05:44:14;;;;;;;0.30;0.30;;;7.80;99.90;;;;;;4993329;28;20677;-78
2021/03/16 05:46:41;;;;;;;0.20;0.20;;;8.00;99.90;;;;;;4993793;28;20177;-78
2021/03/16 05:49:08;;;;;;;0.30;0.30;;;8.10;99.90;;;;;;4992623;28;20220;-78
2021/03/16 05:51:35;;;;;;;0.30;0.30;;;8.10;99.90;;;;;;4994014;28;20539;-78
2021/03/16 05:54:01;;;;;;;21.83;0.90;;;8.10;99.90;;;;;;4993983;28;20166;-77
2021/03/16 05:56:29;;;;;;;1.27;1.27;;;8.10;99.90;;;;;;4994043;28;20659;-78
2021/03/16 05:58:56;;;;;;;0.20;0.20;;;8.10;99.90;;;;;;4993804;28;20240;-77
2021/03/16 06:01:21;;;;;;;1.13;1.02;;;8.20;99.90;;;;;;4993740;28;20532;-77
2021/03/16 06:03:47;;;;;;;1.80;0.98;;;8.10;99.90;;;;;;4993884;28;20193;-77
2021/03/16 06:06:14;;;;;;;0.35;0.35;;;8.20;99.90;;;;;;4993442;28;20181;-77
2021/03/16 06:08:40;;;;;;;13.05;1.25;;;8.20;99.90;;;;;;4993685;28;20525;-77
2021/03/16 06:11:07;;;;;;;0.20;0.20;;;8.20;99.90;;;;;;4993689;28;20165;-77
2021/03/16 06:13:33;;;;;;;0.20;0.20;;;8.20;99.90;;;;;;4994022;28;20196;-77
2021/03/16 06:16:17;;;;;;;17.73;1.92;;;8.10;99.90;;;;;;4993663;28;20760;-78
2021/03/16 06:18:43;;;;;;;0.30;0.30;;;8.00;99.90;;;;;;4993967;28;20265;-77
2021/03/16 06:21:10;;;;;;;0.47;0.47;;;8.00;99.90;;;;;;4993640;28;20668;-78
2021/03/16 06:23:37;;;;;;;3.05;1.75;;;7.90;99.90;;;;;;4993407;28;20193;-77
2021/03/16 06:26:13;;;;;;;0.65;0.57;;;8.10;99.90;;;;;;4993197;28;20201;-77
2021/03/16 06:28:39;;;;;;;2.75;1.17;;;8.10;99.90;;;;;;4993206;28;20189;-77
2021/03/16 06:31:04;;;;;;;0.30;0.30;;;8.10;99.90;;;;;;4993585;28;20161;-78
2021/03/16 06:33:32;;;;;;;2.88;1.92;;;8.20;99.90;;;;;;4993455;28;20154;-79
2021/03/16 06:36:05;;;;;;;0.63;0.63;;;8.20;99.90;;;;;;4993371;28;20618;-80
2021/03/16 06:38:32;;;;;;;0.40;0.40;;;8.10;99.90;;;;;;4994967;28;20225;-83
2021/03/16 06:41:18;;;;;;;0.70;0.60;;;8.00;99.90;;;;;;4996761;28;20169;-78
2021/03/16 06:43:52;;;;;;;0.38;0.38;;;8.00;99.90;;;;;;4996492;28;20656;-79
2021/03/16 06:46:35;;;;;;;5.25;0.85;;;8.00;99.90;;;;;;4996556;28;20164;-78
2021/03/16 06:49:11;;;;;;;2.47;0.47;;;8.00;99.90;;;;;;4996479;28;20227;-78
2021/03/16 06:51:37;;;;;;;2.33;1.33;;;8.10;99.90;;;;;;4996368;28;20644;-79
2021/03/16 06:54:11;;;;;;;0.57;0.57;;;8.10;99.90;;;;;;4996486;28;20165;-77
2021/03/16 06:56:36;;;;;;;0.90;0.40;;;8.10;99.90;;;;;;4996210;28;20212;-79
2021/03/16 06:59:04;;;;;;;1.45;0.40;;;8.20;99.90;;;;;;4996012;28;20192;-79
2021/03/16 07:01:34;;;;;;;0.20;0.20;;;8.30;99.90;;;;;;4995996;28;20695;-79
2021/03/16 07:04:21;;;;;;;0.50;0.50;;;8.20;99.90;;;;;;4995881;28;20200;-77
2021/03/16 07:06:47;;;;;;;0.20;0.20;;;8.30;99.90;;;;;;4995727;28;20204;-82
2021/03/16 07:09:16;;;;;;;0.28;0.28;;;8.30;99.90;;;;;;4995875;28;20237;-78
2021/03/16 07:11:46;;;;;;;1.15;1.10;;;8.20;99.90;;;;;;4996169;28;20165;-79
2021/03/16 07:14:13;;;;;;;8.20;1.35;;;8.30;99.90;;;;;;4995937;28;20166;-78
2021/03/16 07:16:40;;;;;;;7.35;0.40;;;8.40;99.90;;;;;;4995814;28;20192;-73
2021/03/16 07:19:06;;;;;;;1.35;0.40;;;8.30;99.90;;;;;;4995495;28;20256;-78
2021/03/16 07:21:38;;;;;;;0.38;0.38;;;8.30;99.90;;;;;;4995642;28;20636;-76
2021/03/16 07:24:09;;;;;;;1.00;0.60;;;8.30;99.90;;;;;;4995563;28;20243;-77
2021/03/16 07:26:36;;;;;;;0.55;0.55;;;8.30;99.90;;;;;;4995661;28;20189;-77
2021/03/16 07:29:06;;;;;;;0.90;0.90;;;8.40;99.90;;;;;;4995605;28;20283;-77
2021/03/16 07:31:36;;;;;;;2.42;0.77;;;8.60;99.90;;;;;;4995542;28;20256;-77
2021/03/16 07:34:10;;;;;;;0.25;0.25;;;8.60;99.90;;;;;;4995059;28;20221;-82
2021/03/16 07:36:38;;;;;;;0.82;0.75;;;8.50;99.90;;;;;;4994263;28;20193;-83
2021/03/16 07:39:10;;;;;;;0.20;0.20;;;8.60;99.90;;;;;;4993675;28;20252;-79
2021/03/16 07:41:37;;;;;;;1.35;0.85;;;8.60;99.90;;;;;;4993877;28;20256;-78
2021/03/16 07:44:08;;;;;;;0.65;0.65;;;8.70;99.90;;;;;;4993588;28;20343;-77
2021/03/16 07:47:03;;;;;;;0.20;0.20;;;8.70;99.90;;;;;;4995463;28;20185;-76
2021/03/16 07:49:35;;;;;;;0.55;0.55;;;8.80;99.90;;;;;;4993811;28;20220;-79
2021/03/16 07:52:02;;;;;;;0.95;0.95;;;8.90;99.90;;;;;;4995261;28;20647;-78
2021/03/16 07:54:48;;;;;;;0.50;0.50;;;8.90;99.90;;;;;;4995112;28;20172;-78
2021/03/16 07:57:27;;;;;;;0.35;0.35;;;8.70;99.90;;;;;;4995406;28;20268;-78
2021/03/16 07:59:59;;;;;;;3.72;1.40;;;8.70;99.90;;;;;;4995156;28;20153;-78
2021/03/16 08:02:30;;;;;;;4.68;1.13;;;8.80;99.90;;;;;;4995243;28;20193;-79
2021/03/16 08:04:56;;;;;;;0.22;0.22;;;8.90;99.90;;;;;;4995863;28;20612;-77
2021/03/16 08:07:29;;;;;;;0.25;0.25;;;8.70;99.90;;;;;;4994431;28;20796;-76
2021/03/16 08:09:57;;;;;;;1.58;0.85;;;8.80;99.90;;;;;;4995364;28;20244;-77
2021/03/16 08:12:28;;;;;;;0.30;0.30;;;8.80;99.90;;;;;;4994992;28;20158;-75
2021/03/16 08:14:55;;;;;;;0.82;0.82;;;8.70;99.90;;;;;;4994810;28;20169;-75
2021/03/16 08:17:31;;;;;;;0.80;0.65;;;8.90;99.90;;;;;;4990112;28;20206;-75
2021/03/16 08:19:58;;;;;;;0.30;0.30;;;8.70;99.90;;;;;;4972419;28;20231;-78
2021/03/16 08:22:28;;;;;;;0.93;0.43;;;8.80;99.90;;;;;;4973649;28;20653;-76
2021/03/16 08:25:05;;;;;;;1.10;0.77;;;8.80;99.90;;;;;;4972658;28;20565;-76
2021/03/16 08:27:33;;;;;;;0.45;0.45;;;9.00;99.90;;;;;;4973485;28;20189;-77
2021/03/16 08:30:03;;;;;;;33.70;0.93;;;8.80;99.90;;;;;;4973433;28;20507;-75
2021/03/16 08:32:29;;;;;;;0.50;0.50;;;9.20;99.90;;;;;;4973944;28;20253;-76
2021/03/16 08:34:57;;;;;;;6.95;2.20;;;9.20;99.90;;;;;;4973013;28;20543;-75
2021/03/16 08:37:33;;;;;;;0.30;0.30;;;9.30;99.90;;;;;;4973379;28;20675;-76
2021/03/16 08:39:59;;;;;;;0.38;0.38;;;9.50;99.90;;;;;;4973308;28;20249;-75
2021/03/16 08:42:27;;;;;;;11.60;1.05;;;9.60;99.90;;;;;;4973794;28;20158;-77
2021/03/16 08:44:54;;;;;;;0.82;0.52;;;9.60;99.90;;;;;;4971428;28;20241;-75
2021/03/16 08:47:25;;;;;;;4.35;0.63;;;9.50;99.90;;;;;;4970932;28;20218;-76
2021/03/16 08:49:52;;;;;;;0.65;0.65;;;9.50;99.90;;;;;;4973035;28;20249;-75
2021/03/16 08:52:26;;;;;;;0.30;0.30;;;9.30;99.90;;;;;;4971287;28;20584;-76
2021/03/16 08:54:59;;;;;;;0.40;0.40;;;9.40;99.90;;;;;;4967564;28;20178;-77
2021/03/16 08:57:32;;;;;;;5.18;0.60;;;9.40;99.90;;;;;;4967663;28;20205;-78
2021/03/16 08:59:59;;;;;;;2.95;0.93;;;9.60;99.90;;;;;;4972706;28;20252;-76
2021/03/16 09:02:31;;;;;;;0.45;0.45;;;9.60;99.90;;;;;;4970650;28;20177;-76
2021/03/16 09:04:58;;;;;;;1.65;0.75;;;9.70;99.90;;;;;;4967043;28;21071;-75
2021/03/16 09:07:26;;;;;;;1.15;0.95;;;9.60;99.90;;;;;;4967186;28;20253;-75
2021/03/16 09:10:02;;;;;;;0.75;0.68;;;9.50;99.90;;;;;;4965408;28;20204;-77
2021/03/16 09:12:29;;;;;;;11.88;1.05;;;9.50;99.90;;;;;;4969997;28;20260;-76
2021/03/16 09:15:26;;;;;;;2.13;1.15;;;9.50;99.90;;;;;;4966084;28;20257;-77
2021/03/16 09:17:56;;;;;;;0.20;0.20;;;9.50;99.90;;;;;;4973081;28;20194;-85
2021/03/16 09:20:25;;;;;;;1.25;0.80;;;9.60;99.90;;;;;;4973556;28;20178;-76
2021/03/16 09:22:53;;;;;;;0.43;0.43;;;9.70;99.90;;;;;;4972540;28;20166;-76
2021/03/16 09:25:24;;;;;;;0.32;0.32;;;9.80;99.90;;;;;;4972981;28;20201;-76
2021/03/16 09:27:51;;;;;;;1.27;1.05;;;9.60;99.90;;;;;;4972863;28;20665;-76
2021/03/16 09:30:18;;;;;;;0.30;0.30;;;9.70;99.90;;;;;;4973209;28;20170;-80
2021/03/16 09:32:45;;;;;;;0.70;0.70;;;9.60;99.90;;;;;;4972296;28;20229;-77
2021/03/16 09:35:18;;;;;;;2.35;0.30;;;9.60;99.90;;;;;;4972304;28;20174;-75
2021/03/16 09:37:51;;;;;;;0.20;0.20;;;9.80;99.90;;;;;;4975096;28;20190;-75
2021/03/16 09:40:18;;;;;;;6.93;1.65;;;9.90;99.90;;;;;;4972122;28;20178;-77
2021/03/16 09:42:46;;;;;;;0.20;0.20;;;9.90;99.90;;;;;;4970233;28;20211;-77
2021/03/16 09:45:19;;;;;;;0.85;0.68;;;10.10;99.90;;;;;;4972541;28;20676;-76
2021/03/16 09:47:46;;;;;;;0.50;0.50;;;10.00;99.90;;;;;;4970706;28;20276;-75
2021/03/16 09:50:15;;;;;;;0.30;0.30;;;9.90;99.90;;;;;;4954949;28;20306;-77
2021/03/16 09:52:41;;;;;;;0.20;0.20;;;9.90;99.90;;;;;;4971446;28;20173;-76
2021/03/16 09:55:08;;;;;;;0.47;0.47;;;9.80;99.90;;;;;;4970718;28;20253;-79
2021/03/16 09:57:36;;;;;;;0.68;0.68;;;9.80;99.90;;;;;;4971312;28;20344;-76
2021/03/16 10:00:07;;;;;;;0.20;0.20;;;9.70;99.90;;;;;;4972923;28;20179;-76
2021/03/16 10:02:34;;;;;;;0.55;0.55;;;10.00;99.90;;;;;;4972387;28;20185;-76
2021/03/16 10:05:08;;;;;;;0.20;0.20;;;10.20;99.90;;;;;;4972429;28;20205;-76
2021/03/16 10:07:34;;;;;;;0.38;0.38;;;10.40;99.90;;;;;;4972361;28;20713;-77
2021/03/16 10:10:14;;;;;;;0.20;0.20;;;10.30;99.90;;;;;;4973300;28;20177;-76
2021/03/16 10:12:59;;;;;;;0.20;0.20;;;10.10;99.90;;;;;;4973906;28;20184;-76
2021/03/16 10:15:36;;;;;;;0.50;0.50;;;10.00;99.90;;;;;;4976280;28;20170;-76
2021/03/16 10:18:08;;;;;;;0.22;0.22;;;10.00;99.90;;;;;;4975076;28;20540;-77
2021/03/16 10:20:40;;;;;;;0.30;0.30;;;10.00;99.90;;;;;;4976248;28;20634;-76
2021/03/16 10:23:09;;;;;;;0.30;0.30;;;9.90;99.90;;;;;;4972644;28;20213;-76
2021/03/16 10:25:38;;;;;;;0.10;0.10;;;9.80;99.90;;;;;;4975744;28;20233;-81
2021/03/16 10:28:06;;;;;;;0.93;0.93;;;9.70;99.90;;;;;;4973674;28;20185;-75
2021/03/16 10:30:37;;;;;;;0.93;0.93;;;9.60;99.90;;;;;;4974498;28;20256;-74
2021/03/16 10:33:04;;;;;;;0.28;0.28;;;9.50;99.90;;;;;;4973521;28;20178;-76
2021/03/16 10:35:31;;;;;;;0.20;0.20;;;9.50;99.90;;;;;;4972076;28;20685;-76
2021/03/16 10:37:57;;;;;;;0.28;0.28;;;9.50;99.90;;;;;;4976000;28;20229;-76
2021/03/16 10:40:23;;;;;;;0.10;0.10;;;9.70;99.90;;;;;;4977035;28;20524;-77
2021/03/16 10:42:49;;;;;;;0.20;0.20;;;9.70;99.90;;;;;;4977207;28;20157;-77
2021/03/16 10:45:15;;;;;;;0.40;0.40;;;9.80;99.90;;;;;;4976814;28;20198;-76
2021/03/16 10:47:41;;;;;;;7.30;1.20;;;10.00;99.90;;;;;;4976426;28;20194;-77
2021/03/16 10:50:07;;;;;;;0.57;0.57;;;10.10;99.90;;;;;;4975223;28;20291;-76
2021/03/16 10:52:33;;;;;;;0.38;0.30;;;10.10;99.90;;;;;;4976849;28;20166;-77
2021/03/16 10:54:58;;;;;;;7.97;0.65;;;10.30;99.90;;;;;;4976782;28;20534;-76
2021/03/16 10:57:24;;;;;;;0.30;0.30;;;10.40;99.90;;;;;;4976317;28;20221;-77
2021/03/16 10:59:50;;;;;;;0.20;0.20;;;10.60;99.90;;;;;;4976714;28;20245;-78
2021/03/16 11:02:15;;;;;;;0.30;0.30;;;10.40;99.90;;;;;;4976728;28;20252;-78
2021/03/16 11:04:41;;;;;;;0.28;0.28;;;10.70;99.90;;;;;;4976522;28;20699;-78
2021/03/16 11:07:07;;;;;;;0.20;0.20;;;10.90;99.90;;;;;;4976204;28;20240;-77
2021/03/16 11:09:33;;;;;;;0.25;0.25;;;10.50;99.90;;;;;;4975645;28;20566;-78
2021/03/16 11:11:58;;;;;;;0.20;0.20;;;10.60;99.90;;;;;;4976540;28;20204;-77
2021/03/16 11:14:24;;;;;;;0.20;0.20;;;10.70;99.90;;;;;;4976467;28;20182;-77
2021/03/16 11:16:50;;;;;;;0.20;0.20;;;10.70;99.90;;;;;;4974932;28;20205;-80
2021/03/16 11:19:15;;;;;;;0.20;0.20;;;10.80;99.90;;;;;;4975173;28;20181;-79
2021/03/16 11:21:42;;;;;;;0.20;0.20;;;10.90;99.90;;;;;;4976020;28;20174;-76
2021/03/16 11:24:08;;;;;;;0.22;0.22;;;10.70;99.90;;;;;;4974914;28;20281;-78
2021/03/16 11:26:34;;;;;;;0.20;0.20;;;10.50;99.90;;;;;;4976188;28;20201;-76
2021/03/16 11:29:01;;;;;;;2.10;0.43;;;10.60;99.90;;;;;;4976137;28;20162;-77
2021/03/16 11:31:26;;;;;;;0.20;0.20;;;10.50;99.90;;;;;;4976323;28;20249;-78
2021/03/16 11:33:52;;;;;;;0.20;0.20;;;10.50;99.90;;;;;;4976299;28;20205;-77
2021/03/16 11:36:17;;;;;;;0.32;0.32;;;10.30;99.90;;;;;;4975806;28;20169;-76
2021/03/16 11:38:43;;;;;;;0.40;0.25;;;10.00;99.90;;;;;;4968775;28;20178;-77
2021/03/16 11:41:09;;;;;;;0.28;0.28;;;10.00;99.90;;;;;;4966947;28;20212;-75
2021/03/16 11:43:35;;;;;;;0.20;0.20;;;10.20;99.90;;;;;;4968493;28;20173;-76
2021/03/16 11:46:01;;;;;;;0.50;0.50;;;10.10;99.90;;;;;;4972232;28;20269;-77
2021/03/16 11:48:27;;;;;;;0.55;0.55;;;10.10;99.90;;;;;;4965622;28;20192;-77
2021/03/16 11:50:52;;;;;;;0.20;0.20;;;9.70;99.90;;;;;;4967048;28;20186;-75
2021/03/16 11:53:18;;;;;;;0.20;0.20;;;9.50;99.90;;;;;;4965072;28;20174;-77
2021/03/16 11:55:44;;;;;;;0.28;0.28;;;9.70;99.90;;;;;;4968957;28;20177;-78
2021/03/16 11:58:09;;;;;;;2.40;1.48;;;9.70;99.90;;;;;;4972363;28;20240;-79
2021/03/16 12:00:35;;;;;;;0.10;0.10;;;9.70;99.90;;;;;;4974573;28;20173;-79
2021/03/16 12:03:01;;;;;;;1.75;0.47;;;9.80;99.90;;;;;;4969354;28;20174;-76
2021/03/16 12:05:27;;;;;;;0.85;0.85;;;9.90;99.90;;;;;;4968049;28;20216;-79
2021/03/16 12:07:52;;;;;;;0.20;0.20;;;9.80;99.90;;;;;;4974007;28;20185;-78
2021/03/16 12:10:18;;;;;;;0.15;0.15;;;10.00;99.90;;;;;;4975045;28;20648;-79
2021/03/16 12:12:43;;;;;;;1.50;1.08;;;9.80;99.90;;;;;;4970539;28;20177;-77
2021/03/16 12:15:13;;;;;;;0.20;0.20;;;9.60;99.90;;;;;;4973216;28;20186;-77
2021/03/16 12:17:38;;;;;;;0.30;0.30;;;9.80;99.90;;;;;;4974238;28;20281;-78
2021/03/16 12:20:06;;;;;;;0.20;0.20;;;9.70;99.90;;;;;;4975209;28;20245;-78
2021/03/16 12:22:31;;;;;;;0.20;0.20;;;9.80;99.90;;;;;;4974936;28;20158;-77
2021/03/16 12:24:57;;;;;;;0.52;0.32;;;9.90;99.90;;;;;;4974824;28;20197;-77
2021/03/16 12:27:23;;;;;;;0.30;0.30;;;10.00;99.90;;;;;;4974605;28;20190;-78
2021/03/16 12:29:48;;;;;;;0.30;0.30;;;10.20;99.90;;;;;;4974043;28;20190;-78
2021/03/16 12:32:14;;;;;;;8.68;0.80;;;9.90;99.90;;;;;;4976041;28;20241;-79
2021/03/16 12:34:41;;;;;;;0.30;0.30;;;9.80;99.90;;;;;;4971381;28;20178;-75
2021/03/16 12:37:07;;;;;;;0.90;0.45;;;9.90;99.90;;;;;;4974229;28;20190;-82
2021/03/16 12:39:33;;;;;;;2.40;0.57;;;10.00;99.90;;;;;;4970949;28;20174;-77
2021/03/16 12:41:59;;;;;;;0.30;0.30;;;9.90;99.90;;;;;;4962011;28;20178;-77
2021/03/16 12:44:25;;;;;;;2.25;1.05;;;9.70;99.90;;;;;;4968703;28;20220;-76
2021/03/16 12:46:51;;;;;;;0.60;0.60;;;9.70;99.90;;;;;;4966536;28;20194;-77
2021/03/16 12:49:17;;;;;;;0.22;0.22;;;9.70;99.90;;;;;;4972468;28;20582;-77
2021/03/16 12:51:42;;;;;;;0.20;0.20;;;9.70;99.90;;;;;;4974914;28;20232;-77
2021/03/16 12:54:08;;;;;;;1.55;0.45;;;9.80;99.90;;;;;;4974804;28;20232;-77
2021/03/16 12:56:34;;;;;;;0.20;0.20;;;9.70;99.90;;;;;;4974819;28;20232;-77
2021/03/16 12:58:59;;;;;;;0.20;0.20;;;9.80;99.90;;;;;;4973934;28;20170;-78
2021/03/16 13:01:25;;;;;;;0.45;0.45;;;9.90;99.90;;;;;;4973116;28;20296;-77